createdAt,value
2023-04-28T00:00:38.171Z,6.89
2023-04-28T00:01:37.983Z,6.89
2023-04-28T00:02:38.096Z,6.88
2023-04-28T00:03:38.107Z,6.89
2023-04-28T00:04:38.174Z,6.82
2023-04-28T00:05:38.030Z,6.78
2023-04-28T00:06:37.922Z,6.87
2023-04-28T00:07:37.905Z,6.87
2023-04-28T00:08:37.898Z,6.77
2023-04-28T00:09:38.009Z,6.82
2023-04-28T00:10:37.887Z,6.82
2023-04-28T00:11:37.868Z,6.74
2023-04-28T00:12:37.870Z,6.75
2023-04-28T00:13:37.868Z,6.78
2023-04-28T00:14:37.848Z,6.72
2023-04-28T00:15:37.889Z,6.70
2023-04-28T00:16:37.865Z,6.77
2023-04-28T00:17:37.849Z,6.69
2023-04-28T00:18:37.780Z,6.69
2023-04-28T00:19:37.777Z,6.66
2023-04-28T00:20:37.784Z,6.69
2023-04-28T00:21:37.746Z,6.74
2023-04-28T00:22:37.740Z,6.64
2023-04-28T00:23:37.733Z,6.74
2023-04-28T00:24:37.721Z,6.70
2023-04-28T00:25:37.741Z,6.72
2023-04-28T00:26:37.695Z,6.66
2023-04-28T00:27:37.682Z,6.70
2023-04-28T00:28:37.674Z,6.62
2023-04-28T00:29:37.684Z,6.63
2023-04-28T00:30:37.667Z,6.64
2023-04-28T00:31:37.677Z,6.69
2023-04-28T00:32:37.684Z,6.66
2023-04-28T00:33:37.661Z,6.62
2023-04-28T00:34:37.628Z,6.64
2023-04-28T00:35:37.594Z,6.52
2023-04-28T00:36:37.582Z,6.63
2023-04-28T00:37:37.583Z,6.51
2023-04-28T00:38:37.626Z,6.49
2023-04-28T00:39:37.553Z,6.54
2023-04-28T00:40:37.598Z,6.57
2023-04-28T00:41:37.541Z,6.57
2023-04-28T00:42:37.532Z,6.57
2023-04-28T00:43:37.504Z,6.45
2023-04-28T00:44:37.502Z,6.44
2023-04-28T00:45:37.524Z,6.44
2023-04-28T00:46:37.468Z,6.31
2023-04-28T00:47:37.488Z,6.45
2023-04-28T00:48:37.450Z,6.44
2023-04-28T00:49:37.432Z,6.33
2023-04-28T00:50:37.422Z,6.39
2023-04-28T00:51:37.419Z,6.41
2023-04-28T00:52:37.416Z,6.44
2023-04-28T00:53:37.382Z,6.35
2023-04-28T00:54:37.382Z,6.33
2023-04-28T00:55:37.366Z,6.39
2023-04-28T00:56:37.353Z,6.33
2023-04-28T00:57:37.373Z,6.33
2023-04-28T00:58:37.328Z,6.35
2023-04-28T00:59:37.323Z,6.38
2023-04-28T01:00:37.309Z,6.45
2023-04-28T01:01:37.325Z,6.39
2023-04-28T01:02:37.456Z,6.44
2023-04-28T01:03:37.474Z,6.45
2023-04-28T01:04:37.655Z,6.45
2023-04-28T01:05:37.249Z,6.46
2023-04-28T01:06:37.297Z,6.42
2023-04-28T01:07:37.231Z,6.41
2023-04-28T01:08:37.239Z,6.46
2023-04-28T01:09:37.228Z,6.41
2023-04-28T01:10:37.228Z,6.42
2023-04-28T01:11:37.632Z,6.41
2023-04-28T01:12:37.174Z,6.46
2023-04-28T01:13:37.183Z,6.45
2023-04-28T01:14:37.164Z,6.42
2023-04-28T01:15:37.139Z,6.36
2023-04-28T01:16:37.189Z,6.46
2023-04-28T01:17:37.157Z,6.46
2023-04-28T01:18:37.211Z,6.48
2023-04-28T01:19:37.090Z,6.42
2023-04-28T01:20:37.118Z,6.46
2023-04-28T01:21:37.067Z,6.45
2023-04-28T01:22:37.066Z,6.45
2023-04-28T01:23:37.629Z,6.41
2023-04-28T01:24:37.095Z,6.44
2023-04-28T01:25:37.039Z,6.35
2023-04-28T01:26:37.016Z,6.38
2023-04-28T01:27:37.008Z,6.38
2023-04-28T01:28:37.015Z,6.38
2023-04-28T01:29:37.160Z,6.36
2023-04-28T01:30:36.975Z,6.33
2023-04-28T01:31:37.008Z,6.39
2023-04-28T01:32:36.994Z,6.33
2023-04-28T01:33:36.987Z,6.30
2023-04-28T01:34:36.921Z,6.27
2023-04-28T01:35:37.163Z,6.17
2023-04-28T01:36:37.819Z,6.04
2023-04-28T01:37:36.959Z,6.04
2023-04-28T01:38:36.888Z,5.98
2023-04-28T01:39:36.880Z,6.02
2023-04-28T01:40:36.920Z,5.99
2023-04-28T01:41:36.841Z,5.94
2023-04-28T01:42:36.871Z,5.98
2023-04-28T01:43:36.845Z,6.01
2023-04-28T01:44:36.819Z,6.01
2023-04-28T01:45:36.832Z,6.12
2023-04-28T01:46:37.021Z,5.99
2023-04-28T01:47:36.814Z,6.07
2023-04-28T01:48:36.904Z,6.05
2023-04-28T01:49:37.641Z,6.02
2023-04-28T01:50:36.761Z,6.04
2023-04-28T01:51:36.754Z,6.01
2023-04-28T01:52:36.725Z,6.09
2023-04-28T01:53:36.712Z,6.02
2023-04-28T01:54:36.701Z,6.04
2023-04-28T01:55:36.754Z,6.02
2023-04-28T01:56:36.786Z,5.91
2023-04-28T01:57:36.673Z,5.97
2023-04-28T01:58:36.662Z,5.98
2023-04-28T01:59:36.658Z,6.02
2023-04-28T02:00:36.636Z,5.99
2023-04-28T02:01:36.695Z,5.97
2023-04-28T02:02:36.667Z,5.99
2023-04-28T02:03:36.747Z,5.99
2023-04-28T02:04:36.721Z,5.98
2023-04-28T02:05:36.573Z,6.01
2023-04-28T02:06:36.561Z,6.04
2023-04-28T02:07:36.553Z,5.98
2023-04-28T02:08:36.571Z,6.01
2023-04-28T02:09:36.535Z,5.99
2023-04-28T02:10:36.515Z,5.93
2023-04-28T02:11:36.505Z,5.99
2023-04-28T02:12:36.561Z,5.97
2023-04-28T02:13:36.501Z,5.98
2023-04-28T02:14:36.474Z,6.01
2023-04-28T02:15:36.480Z,5.97
2023-04-28T02:16:36.471Z,6.05
2023-04-28T02:17:36.545Z,5.98
2023-04-28T02:18:36.420Z,6.02
2023-04-28T02:19:36.410Z,6.07
2023-04-28T02:20:36.408Z,6.01
2023-04-28T02:21:36.412Z,6.04
2023-04-28T02:22:36.380Z,5.98
2023-04-28T02:23:36.375Z,5.93
2023-04-28T02:24:36.358Z,6.05
2023-04-28T02:25:36.361Z,5.98
2023-04-28T02:26:36.341Z,6.02
2023-04-28T02:27:36.322Z,6.02
2023-04-28T02:28:36.318Z,6.08
2023-04-28T02:29:36.312Z,6.05
2023-04-28T02:30:36.656Z,6.07
2023-04-28T02:31:36.343Z,6.08
2023-04-28T02:32:36.330Z,6.04
2023-04-28T02:33:36.278Z,6.07
2023-04-28T02:34:36.262Z,6.08
2023-04-28T02:35:36.233Z,6.07
2023-04-28T02:36:36.236Z,6.09
2023-04-28T02:37:36.213Z,6.09
2023-04-28T02:38:36.208Z,6.04
2023-04-28T02:39:36.208Z,6.07
2023-04-28T02:40:36.181Z,6.07
2023-04-28T02:41:36.185Z,6.04
2023-04-28T02:42:36.161Z,6.12
2023-04-28T02:43:36.178Z,6.09
2023-04-28T02:44:36.136Z,6.04
2023-04-28T02:45:36.123Z,6.07
2023-04-28T02:46:36.166Z,6.04
2023-04-28T02:47:36.149Z,6.04
2023-04-28T02:48:36.096Z,6.12
2023-04-28T02:49:36.133Z,5.99
2023-04-28T02:50:36.076Z,6.07
2023-04-28T02:51:36.206Z,6.02
2023-04-28T02:52:36.062Z,6.07
2023-04-28T02:53:36.037Z,6.04
2023-04-28T02:54:36.041Z,5.94
2023-04-28T02:55:36.042Z,5.98
2023-04-28T02:56:36.004Z,6.02
2023-04-28T02:57:35.994Z,5.90
2023-04-28T02:58:35.978Z,5.84
2023-04-28T02:59:35.996Z,5.89
2023-04-28T03:00:35.955Z,5.93
2023-04-28T03:01:36.029Z,5.97
2023-04-28T03:02:36.007Z,5.94
2023-04-28T03:03:36.083Z,5.91
2023-04-28T03:04:35.998Z,5.93
2023-04-28T03:05:35.931Z,5.97
2023-04-28T03:06:35.894Z,5.98
2023-04-28T03:07:35.877Z,6.02
2023-04-28T03:08:35.866Z,6.01
2023-04-28T03:09:35.856Z,6.01
2023-04-28T03:10:35.918Z,6.07
2023-04-28T03:11:35.838Z,6.02
2023-04-28T03:12:35.824Z,5.99
2023-04-28T03:13:35.812Z,6.07
2023-04-28T03:14:35.800Z,6.07
2023-04-28T03:15:35.806Z,6.08
2023-04-28T03:16:35.826Z,6.07
2023-04-28T03:17:35.804Z,6.01
2023-04-28T03:18:35.760Z,6.02
2023-04-28T03:19:35.762Z,6.07
2023-04-28T03:20:35.742Z,6.04
2023-04-28T03:21:35.748Z,6.07
2023-04-28T03:22:35.733Z,6.11
2023-04-28T03:23:35.701Z,6.07
2023-04-28T03:24:35.702Z,6.17
2023-04-28T03:25:35.692Z,6.01
2023-04-28T03:26:35.667Z,5.99
2023-04-28T03:27:35.661Z,6.07
2023-04-28T03:28:35.661Z,6.08
2023-04-28T03:29:35.644Z,6.12
2023-04-28T03:30:35.662Z,6.19
2023-04-28T03:31:35.640Z,6.17
2023-04-28T03:32:35.630Z,6.14
2023-04-28T03:33:35.604Z,6.19
2023-04-28T03:34:35.573Z,6.26
2023-04-28T03:35:35.573Z,6.17
2023-04-28T03:36:35.565Z,6.27
2023-04-28T03:37:35.567Z,6.22
2023-04-28T03:38:35.533Z,6.26
2023-04-28T03:39:35.527Z,6.22
2023-04-28T03:40:35.534Z,6.22
2023-04-28T03:41:35.560Z,6.22
2023-04-28T03:42:35.479Z,6.17
2023-04-28T03:43:35.492Z,6.26
2023-04-28T03:44:35.462Z,6.17
2023-04-28T03:45:35.480Z,6.22
2023-04-28T03:46:35.480Z,6.20
2023-04-28T03:47:35.441Z,6.26
2023-04-28T03:48:35.426Z,6.14
2023-04-28T03:49:35.407Z,6.19
2023-04-28T03:50:35.407Z,6.19
2023-04-28T03:51:35.382Z,6.22
2023-04-28T03:52:35.377Z,6.14
2023-04-28T03:53:35.465Z,6.12
2023-04-28T03:54:35.347Z,6.24
2023-04-28T03:55:35.354Z,6.08
2023-04-28T03:56:35.326Z,6.12
2023-04-28T03:57:35.333Z,6.17
2023-04-28T03:58:35.304Z,6.17
2023-04-28T03:59:35.294Z,6.22
2023-04-28T04:00:35.300Z,6.27
2023-04-28T04:01:35.281Z,6.31
2023-04-28T04:02:35.344Z,6.28
2023-04-28T04:03:35.449Z,6.30
2023-04-28T04:04:35.447Z,6.30
2023-04-28T04:05:35.470Z,6.31
2023-04-28T04:06:35.226Z,6.17
2023-04-28T04:07:35.214Z,6.28
2023-04-28T04:08:35.207Z,6.38
2023-04-28T04:09:35.200Z,6.31
2023-04-28T04:10:35.196Z,6.38
2023-04-28T04:11:35.161Z,6.31
2023-04-28T04:12:35.145Z,6.24
2023-04-28T04:13:35.138Z,6.33
2023-04-28T04:14:35.130Z,6.33
2023-04-28T04:15:35.148Z,6.36
2023-04-28T04:16:35.104Z,6.44
2023-04-28T04:17:35.270Z,6.42
2023-04-28T04:18:35.083Z,6.33
2023-04-28T04:19:35.069Z,6.46
2023-04-28T04:20:35.076Z,6.48
2023-04-28T04:21:35.048Z,6.51
2023-04-28T04:22:35.041Z,6.46
2023-04-28T04:23:35.024Z,6.51
2023-04-28T04:24:35.009Z,6.49
2023-04-28T04:25:35.033Z,6.62
2023-04-28T04:26:34.988Z,6.64
2023-04-28T04:27:34.978Z,6.72
2023-04-28T04:28:34.983Z,6.67
2023-04-28T04:29:34.969Z,6.72
2023-04-28T04:30:34.946Z,6.69
2023-04-28T04:31:35.140Z,6.74
2023-04-28T04:32:34.938Z,6.74
2023-04-28T04:33:34.924Z,6.79
2023-04-28T04:34:34.950Z,6.75
2023-04-28T04:35:34.896Z,6.70
2023-04-28T04:36:34.977Z,6.78
2023-04-28T04:37:34.879Z,6.77
2023-04-28T04:38:34.870Z,6.85
2023-04-28T04:39:34.846Z,6.75
2023-04-28T04:40:34.835Z,6.74
2023-04-28T04:41:34.849Z,6.87
2023-04-28T04:42:34.824Z,6.89
2023-04-28T04:43:34.799Z,6.82
2023-04-28T04:44:34.787Z,6.79
2023-04-28T04:45:34.784Z,6.85
2023-04-28T04:46:34.796Z,6.82
2023-04-28T04:47:34.789Z,6.88
2023-04-28T04:48:34.742Z,6.87
2023-04-28T04:49:34.734Z,6.87
2023-04-28T04:50:34.723Z,6.93
2023-04-28T04:51:34.720Z,6.92
2023-04-28T04:52:34.741Z,6.96
2023-04-28T04:53:34.849Z,6.89
2023-04-28T04:54:34.688Z,6.92
2023-04-28T04:55:35.751Z,6.92
2023-04-28T04:56:34.674Z,6.95
2023-04-28T04:57:34.658Z,6.96
2023-04-28T04:58:34.653Z,6.88
2023-04-28T04:59:34.639Z,6.97
2023-04-28T05:00:34.614Z,6.92
2023-04-28T05:01:34.668Z,6.97
2023-04-28T05:02:34.756Z,6.93
2023-04-28T05:03:34.680Z,7.10
2023-04-28T05:04:34.647Z,7.00
2023-04-28T05:05:34.636Z,6.97
2023-04-28T05:06:34.551Z,6.97
2023-04-28T05:07:34.642Z,7.07
2023-04-28T05:08:34.542Z,7.17
2023-04-28T05:09:34.513Z,7.11
2023-04-28T05:10:34.518Z,7.05
2023-04-28T05:11:34.502Z,7.14
2023-04-28T05:12:34.510Z,7.11
2023-04-28T05:13:34.490Z,7.14
2023-04-28T05:14:34.460Z,7.24
2023-04-28T05:15:34.449Z,7.21
2023-04-28T05:16:34.494Z,7.20
2023-04-28T05:17:34.461Z,7.31
2023-04-28T05:18:34.423Z,7.21
2023-04-28T05:19:34.406Z,7.15
2023-04-28T05:20:34.411Z,7.21
2023-04-28T05:21:34.379Z,7.24
2023-04-28T05:22:34.370Z,7.18
2023-04-28T05:23:34.354Z,7.21
2023-04-28T05:24:34.385Z,7.25
2023-04-28T05:25:34.349Z,7.28
2023-04-28T05:26:34.478Z,7.25
2023-04-28T05:27:34.320Z,7.23
2023-04-28T05:28:34.337Z,7.33
2023-04-28T05:29:34.322Z,7.32
2023-04-28T05:30:34.281Z,7.35
2023-04-28T05:31:34.309Z,7.39
2023-04-28T05:32:34.302Z,7.54
2023-04-28T05:33:34.269Z,7.54
2023-04-28T05:34:34.244Z,7.60
2023-04-28T05:35:34.228Z,7.70
2023-04-28T05:36:34.209Z,7.60
2023-04-28T05:37:34.213Z,7.73
2023-04-28T05:38:34.190Z,7.80
2023-04-28T05:39:34.201Z,7.88
2023-04-28T05:40:34.163Z,7.82
2023-04-28T05:41:34.302Z,7.87
2023-04-28T05:42:34.145Z,7.98
2023-04-28T05:43:34.135Z,8.10
2023-04-28T05:44:34.148Z,8.26
2023-04-28T05:45:34.145Z,8.37
2023-04-28T05:46:34.142Z,8.30
2023-04-28T05:47:34.111Z,8.41
2023-04-28T05:48:34.088Z,8.48
2023-04-28T05:49:34.069Z,8.44
2023-04-28T05:50:34.105Z,8.36
2023-04-28T05:51:34.074Z,8.48
2023-04-28T05:52:34.085Z,8.53
2023-04-28T05:53:34.028Z,8.71
2023-04-28T05:54:34.007Z,8.76
2023-04-28T05:55:34.020Z,8.94
2023-04-28T05:56:33.989Z,8.87
2023-04-28T05:57:42.185Z,8.97
2023-04-28T05:58:34.965Z,9.16
2023-04-28T05:59:33.985Z,9.37
2023-04-28T06:00:33.944Z,9.44
2023-04-28T06:01:33.961Z,9.64
2023-04-28T06:02:34.056Z,9.62
2023-04-28T06:03:34.103Z,9.76
2023-04-28T06:04:34.136Z,9.92
2023-04-28T06:05:34.297Z,9.92
2023-04-28T06:06:33.877Z,9.79
2023-04-28T06:07:33.872Z,9.77
2023-04-28T06:08:33.876Z,9.87
2023-04-28T06:09:34.181Z,9.91
2023-04-28T06:10:33.835Z,10.02
2023-04-28T06:11:33.824Z,10.25
2023-04-28T06:12:33.811Z,10.42
2023-04-28T06:13:33.821Z,10.69
2023-04-28T06:14:33.791Z,10.87
2023-04-28T06:15:33.813Z,11.04
2023-04-28T06:16:33.937Z,11.10
2023-04-28T06:17:33.806Z,11.14
2023-04-28T06:18:33.742Z,11.37
2023-04-28T06:19:33.746Z,11.48
2023-04-28T06:20:33.721Z,11.77
2023-04-28T06:21:33.795Z,11.94
2023-04-28T06:22:33.711Z,12.25
2023-04-28T06:23:33.689Z,12.43
2023-04-28T06:24:33.700Z,12.53
2023-04-28T06:25:33.686Z,12.76
2023-04-28T06:26:33.657Z,13.03
2023-04-28T06:27:33.664Z,13.33
2023-04-28T06:28:33.631Z,13.50
2023-04-28T06:29:33.623Z,13.96
2023-04-28T06:30:33.608Z,14.48
2023-04-28T06:31:33.644Z,15.06
2023-04-28T06:32:33.608Z,15.49
2023-04-28T06:33:33.600Z,15.49
2023-04-28T06:34:33.563Z,15.80
2023-04-28T06:35:33.783Z,16.20
2023-04-28T06:36:33.557Z,16.15
2023-04-28T06:37:33.541Z,15.94
2023-04-28T06:38:33.518Z,16.33
2023-04-28T06:39:33.514Z,17.02
2023-04-28T06:40:33.496Z,17.83
2023-04-28T06:41:33.502Z,18.38
2023-04-28T06:42:33.476Z,18.43
2023-04-28T06:43:33.494Z,18.04
2023-04-28T06:44:34.813Z,17.92
2023-04-28T06:45:33.441Z,18.40
2023-04-28T06:46:33.471Z,19.09
2023-04-28T06:47:33.459Z,19.70
2023-04-28T06:48:33.402Z,19.49
2023-04-28T06:49:33.485Z,19.55
2023-04-28T06:50:33.388Z,19.84
2023-04-28T06:51:33.371Z,20.34
2023-04-28T06:52:39.040Z,20.39
2023-04-28T06:53:34.355Z,20.82
2023-04-28T06:54:33.353Z,20.29
2023-04-28T06:55:33.325Z,19.96
2023-04-28T06:56:33.421Z,19.31
2023-04-28T06:58:35.698Z,19.99
2023-04-28T06:59:35.723Z,19.47
2023-04-28T07:00:35.711Z,19.08
2023-04-28T07:01:35.666Z,18.49
2023-04-28T07:02:35.801Z,18.08
2023-04-28T07:03:35.776Z,18.04
2023-04-28T07:04:35.648Z,17.97
2023-04-28T07:05:36.542Z,18.08
2023-04-28T07:06:35.613Z,18.63
2023-04-28T07:07:35.598Z,19.30
2023-04-28T07:08:35.589Z,18.37
2023-04-28T07:09:35.591Z,18.38
2023-04-28T07:10:35.567Z,19.00
2023-04-28T07:11:35.629Z,19.40
2023-04-28T07:12:35.572Z,19.70
2023-04-28T07:13:35.549Z,20.37
2023-04-28T07:14:35.539Z,20.39
2023-04-28T07:15:35.513Z,20.99
2023-04-28T07:16:35.537Z,21.76
2023-04-28T07:17:35.526Z,22.70
2023-04-28T07:18:35.492Z,22.87
2023-04-28T07:19:35.537Z,23.08
2023-04-28T07:20:35.458Z,22.96
2023-04-28T07:21:35.457Z,23.46
2023-04-28T07:22:35.439Z,23.63
2023-04-28T07:23:35.435Z,23.48
2023-04-28T07:24:35.937Z,23.80
2023-04-28T07:25:35.417Z,23.71
2023-04-28T07:26:35.389Z,24.26
2023-04-28T07:27:35.396Z,25.10
2023-04-28T07:28:35.379Z,25.60
2023-04-28T07:29:35.386Z,26.06
2023-04-28T07:30:35.347Z,25.90
2023-04-28T07:31:35.396Z,26.09
2023-04-28T07:32:35.377Z,26.41
2023-04-28T07:33:35.310Z,26.65
2023-04-28T07:34:35.297Z,26.85
2023-04-28T07:35:35.313Z,26.47
2023-04-28T07:36:35.293Z,26.70
2023-04-28T07:37:35.301Z,27.33
2023-04-28T07:38:35.276Z,28.35
2023-04-28T07:39:35.444Z,29.08
2023-04-28T07:40:35.244Z,28.94
2023-04-28T07:41:35.223Z,26.60
2023-04-28T07:42:35.218Z,24.86
2023-04-28T07:43:35.217Z,25.23
2023-04-28T07:44:35.200Z,24.66
2023-04-28T07:45:35.202Z,25.06
2023-04-28T07:46:35.307Z,25.28
2023-04-28T07:47:35.206Z,25.68
2023-04-28T07:48:35.141Z,26.38
2023-04-28T07:49:35.128Z,26.16
2023-04-28T07:50:35.155Z,25.53
2023-04-28T07:51:35.122Z,24.36
2023-04-28T07:52:35.108Z,23.96
2023-04-28T07:53:35.106Z,23.36
2023-04-28T07:54:36.967Z,23.43
2023-04-28T07:55:35.929Z,24.66
2023-04-28T07:56:35.066Z,25.14
2023-04-28T07:57:35.219Z,25.21
2023-04-28T07:58:35.044Z,25.38
2023-04-28T07:59:35.028Z,25.53
2023-04-28T08:00:35.020Z,25.87
2023-04-28T08:01:34.999Z,26.29
2023-04-28T08:02:35.107Z,25.65
2023-04-28T08:03:35.340Z,24.10
2023-04-28T08:04:35.185Z,23.74
2023-04-28T08:05:34.988Z,24.51
2023-04-28T08:06:34.944Z,25.07
2023-04-28T08:07:34.934Z,24.28
2023-04-28T08:08:34.922Z,24.54
2023-04-28T08:09:35.548Z,25.01
2023-04-28T08:10:34.913Z,25.13
2023-04-28T08:11:34.958Z,25.21
2023-04-28T08:12:34.884Z,25.58
2023-04-28T08:13:34.868Z,25.66
2023-04-28T08:14:34.920Z,26.29
2023-04-28T08:15:34.877Z,26.09
2023-04-28T08:16:34.832Z,26.23
2023-04-28T08:17:34.848Z,26.83
2023-04-28T08:18:34.863Z,26.34
2023-04-28T08:19:34.856Z,26.63
2023-04-28T08:20:34.793Z,27.30
2023-04-28T08:21:34.776Z,27.27
2023-04-28T08:22:34.778Z,27.95
2023-04-28T08:23:34.758Z,27.60
2023-04-28T08:24:34.815Z,26.71
2023-04-28T08:25:34.770Z,26.52
2023-04-28T08:26:34.755Z,27.18
2023-04-28T08:27:34.727Z,27.82
2023-04-28T08:28:34.712Z,27.67
2023-04-28T08:29:34.690Z,28.07
2023-04-28T08:30:34.693Z,28.54
2023-04-28T08:31:34.763Z,28.64
2023-04-28T08:32:34.668Z,27.93
2023-04-28T08:33:34.648Z,27.44
2023-04-28T08:34:34.633Z,27.67
2023-04-28T08:35:34.658Z,28.72
2023-04-28T08:36:34.615Z,29.42
2023-04-28T08:37:34.602Z,29.23
2023-04-28T08:38:34.589Z,28.79
2023-04-28T08:39:34.595Z,28.35
2023-04-28T08:40:34.620Z,28.02
2023-04-28T08:41:34.574Z,27.26
2023-04-28T08:42:34.552Z,26.68
2023-04-28T08:43:34.554Z,26.44
2023-04-28T08:44:34.529Z,26.53
2023-04-28T08:45:34.513Z,26.43
2023-04-28T08:46:34.552Z,27.02
2023-04-28T08:47:34.536Z,27.77
2023-04-28T08:48:34.487Z,28.51
2023-04-28T08:49:34.476Z,29.38
2023-04-28T08:50:34.501Z,28.86
2023-04-28T08:51:34.465Z,28.74
2023-04-28T08:52:34.461Z,29.29
2023-04-28T08:53:39.514Z,29.54
2023-04-28T08:54:35.737Z,28.44
2023-04-28T08:55:34.420Z,28.15
2023-04-28T08:56:34.426Z,28.52
2023-04-28T08:57:34.606Z,29.49
2023-04-28T08:58:34.379Z,29.10
2023-04-28T08:59:34.389Z,29.34
2023-04-28T09:00:34.393Z,28.49
2023-04-28T09:01:34.413Z,27.14
2023-04-28T09:02:34.523Z,27.65
2023-04-28T09:03:34.507Z,28.51
2023-04-28T09:04:34.798Z,28.04
2023-04-28T09:05:34.429Z,27.83
2023-04-28T09:06:34.287Z,28.51
2023-04-28T09:07:34.286Z,28.19
2023-04-28T09:08:34.306Z,27.51
2023-04-28T09:09:37.018Z,26.40
2023-04-28T09:10:34.250Z,26.60
2023-04-28T09:11:34.291Z,27.42
2023-04-28T09:12:34.225Z,28.12
2023-04-28T09:13:34.232Z,28.74
2023-04-28T09:14:34.227Z,28.70
2023-04-28T09:15:34.260Z,27.80
2023-04-28T09:16:34.224Z,27.82
2023-04-28T09:17:34.186Z,28.05
2023-04-28T09:18:34.484Z,27.98
2023-04-28T09:19:34.169Z,26.96
2023-04-28T09:20:34.153Z,26.62
2023-04-28T09:21:34.154Z,26.34
2023-04-28T09:22:34.155Z,26.31
2023-04-28T09:23:34.136Z,26.38
2023-04-28T09:24:34.112Z,26.47
2023-04-28T09:25:34.087Z,26.97
2023-04-28T09:26:34.078Z,26.73
2023-04-28T09:27:34.072Z,25.41
2023-04-28T09:28:34.077Z,25.84
2023-04-28T09:29:34.148Z,26.66
2023-04-28T09:30:34.058Z,27.07
2023-04-28T09:31:34.070Z,27.49
2023-04-28T09:32:34.095Z,27.70
2023-04-28T09:33:34.009Z,28.30
2023-04-28T09:34:34.009Z,27.58
2023-04-28T09:35:33.995Z,27.59
2023-04-28T09:36:33.990Z,26.84
2023-04-28T09:37:33.975Z,26.43
2023-04-28T09:38:33.956Z,26.85
2023-04-28T09:39:33.986Z,27.47
2023-04-28T09:40:33.940Z,26.92
2023-04-28T09:41:33.994Z,26.80
2023-04-28T09:42:33.912Z,26.51
2023-04-28T09:43:33.910Z,26.40
2023-04-28T09:44:34.088Z,26.33
2023-04-28T09:45:33.933Z,26.00
2023-04-28T09:46:33.930Z,26.16
2023-04-28T09:47:33.876Z,26.56
2023-04-28T09:48:33.889Z,26.74
2023-04-28T09:49:33.838Z,26.83
2023-04-28T09:50:33.828Z,26.45
2023-04-28T09:51:33.819Z,26.71
2023-04-28T09:52:33.804Z,27.11
2023-04-28T09:53:33.828Z,27.59
2023-04-28T09:54:33.783Z,28.37
2023-04-28T09:55:33.774Z,28.64
2023-04-28T09:56:33.835Z,28.12
2023-04-28T09:57:33.802Z,27.73
2023-04-28T09:58:33.741Z,27.18
2023-04-28T09:59:33.730Z,27.63
2023-04-28T10:00:33.731Z,28.12
2023-04-28T10:01:33.865Z,27.82
2023-04-28T10:02:43.195Z,27.47
2023-04-28T10:03:34.953Z,27.73
2023-04-28T10:04:33.967Z,27.37
2023-04-28T10:05:33.867Z,27.25
2023-04-28T10:06:33.658Z,27.35
2023-04-28T10:07:33.643Z,27.18
2023-04-28T10:08:33.734Z,27.21
2023-04-28T10:09:33.624Z,27.35
2023-04-28T10:10:33.621Z,26.78
2023-04-28T10:11:33.620Z,26.75
2023-04-28T10:12:33.615Z,27.33
2023-04-28T10:13:33.954Z,28.19
2023-04-28T10:14:33.569Z,28.93
2023-04-28T10:15:33.617Z,29.31
2023-04-28T10:16:33.563Z,29.23
2023-04-28T10:17:33.607Z,29.16
2023-04-28T10:18:34.567Z,29.53
2023-04-28T10:19:33.552Z,29.51
2023-04-28T10:20:33.517Z,29.50
2023-04-28T10:21:33.498Z,29.36
2023-04-28T10:22:33.486Z,29.23
2023-04-28T10:23:33.494Z,28.98
2023-04-28T10:24:33.474Z,28.74
2023-04-28T10:25:33.459Z,28.94
2023-04-28T10:26:33.461Z,29.39
2023-04-28T10:27:33.456Z,29.53
2023-04-28T10:28:33.438Z,28.78
2023-04-28T10:29:33.428Z,28.75
2023-04-28T10:30:33.412Z,28.15
2023-04-28T10:31:33.427Z,28.15
2023-04-28T10:32:33.504Z,28.48
2023-04-28T10:33:33.391Z,29.05
2023-04-28T10:34:33.380Z,29.41
2023-04-28T10:35:33.355Z,29.56
2023-04-28T10:36:36.269Z,29.24
2023-04-28T10:37:33.335Z,28.69
2023-04-28T10:38:33.326Z,28.66
2023-04-28T10:39:33.312Z,28.60
2023-04-28T10:40:33.301Z,28.70
2023-04-28T10:41:33.310Z,28.88
2023-04-28T10:42:33.283Z,29.36
2023-04-28T10:43:33.268Z,29.45
2023-04-28T10:44:33.256Z,28.70
2023-04-28T10:45:35.101Z,28.27
2023-04-28T10:46:33.291Z,27.75
2023-04-28T10:47:33.313Z,27.36
2023-04-28T10:48:33.220Z,27.07
2023-04-28T10:49:33.226Z,27.77
2023-04-28T10:50:39.123Z,28.27
2023-04-28T10:51:34.221Z,28.81
2023-04-28T10:52:33.178Z,29.17
2023-04-28T10:53:33.190Z,28.93
2023-04-28T10:54:33.155Z,28.44
2023-04-28T10:55:33.183Z,27.95
2023-04-28T10:56:33.134Z,28.30
2023-04-28T10:57:33.154Z,28.85
2023-04-28T10:58:33.238Z,28.66
2023-04-28T10:59:33.111Z,27.85
2023-04-28T11:00:33.177Z,28.37
2023-04-28T11:01:33.095Z,29.07
2023-04-28T11:02:33.308Z,29.63
2023-04-28T11:03:33.337Z,29.75
2023-04-28T11:04:33.272Z,29.57
2023-04-28T11:05:33.098Z,29.36
2023-04-28T11:06:33.036Z,29.35
2023-04-28T11:07:33.033Z,29.31
2023-04-28T11:08:33.013Z,29.10
2023-04-28T11:09:33.013Z,29.17
2023-04-28T11:10:32.991Z,28.74
2023-04-28T11:11:32.983Z,28.54
2023-04-28T11:12:32.982Z,28.85
2023-04-28T11:13:32.966Z,29.08
2023-04-28T11:14:32.981Z,28.42
2023-04-28T11:15:32.949Z,26.93
2023-04-28T11:16:32.961Z,26.33
2023-04-28T11:17:32.950Z,26.25
2023-04-28T11:18:32.909Z,26.62
2023-04-28T11:19:32.910Z,27.20
2023-04-28T11:20:32.886Z,27.63
2023-04-28T11:21:32.889Z,28.02
2023-04-28T11:22:32.885Z,28.00
2023-04-28T11:23:32.853Z,27.36
2023-04-28T11:24:32.870Z,26.83
2023-04-28T11:25:32.835Z,26.22
2023-04-28T11:26:32.858Z,25.60
2023-04-28T11:27:32.824Z,25.22
2023-04-28T11:28:32.806Z,24.40
2023-04-28T11:29:32.802Z,23.32
2023-04-28T11:30:32.810Z,23.17
2023-04-28T11:31:32.783Z,22.80
2023-04-28T11:32:32.816Z,22.70
2023-04-28T11:33:32.881Z,23.05
2023-04-28T11:34:32.769Z,23.09
2023-04-28T11:35:32.723Z,22.65
2023-04-28T11:36:32.739Z,22.68
2023-04-28T11:37:32.840Z,22.84
2023-04-28T11:38:32.744Z,23.05
2023-04-28T11:39:32.706Z,22.83
2023-04-28T11:40:32.683Z,22.50
2023-04-28T11:41:32.666Z,22.18
2023-04-28T11:42:32.659Z,22.00
2023-04-28T11:43:46.118Z,22.15
2023-04-28T11:44:33.627Z,22.44
2023-04-28T11:45:32.675Z,22.43
2023-04-28T11:46:32.607Z,22.62
2023-04-28T11:47:33.078Z,22.15
2023-04-28T11:48:32.582Z,21.77
2023-04-28T11:49:32.626Z,21.61
2023-04-28T11:50:32.557Z,21.22
2023-04-28T11:51:32.556Z,21.06
2023-04-28T11:52:32.544Z,20.87
2023-04-28T11:53:32.546Z,20.99
2023-04-28T11:54:32.568Z,21.03
2023-04-28T11:55:32.517Z,20.80
2023-04-28T11:56:32.501Z,20.77
2023-04-28T11:57:32.536Z,20.93
2023-04-28T11:58:32.497Z,21.03
2023-04-28T11:59:32.502Z,20.90
2023-04-28T12:00:32.468Z,20.80
2023-04-28T12:01:32.441Z,20.69
2023-04-28T12:02:32.517Z,20.39
2023-04-28T12:03:32.593Z,20.52
2023-04-28T12:04:32.415Z,20.51
2023-04-28T12:05:32.421Z,20.47
2023-04-28T12:06:32.388Z,20.55
2023-04-28T12:07:32.372Z,20.75
2023-04-28T12:08:32.378Z,20.92
2023-04-28T12:09:32.386Z,21.03
2023-04-28T12:10:32.336Z,21.15
2023-04-28T12:11:32.332Z,21.03
2023-04-28T12:12:40.567Z,20.92
2023-04-28T12:13:33.340Z,20.99
2023-04-28T12:14:32.294Z,21.17
2023-04-28T12:15:32.333Z,21.20
2023-04-28T12:16:32.287Z,21.30
2023-04-28T12:17:32.299Z,21.27
2023-04-28T12:18:32.248Z,21.57
2023-04-28T12:19:32.247Z,21.58
2023-04-28T12:20:32.228Z,22.02
2023-04-28T12:21:32.242Z,22.63
2023-04-28T12:22:32.204Z,22.72
2023-04-28T12:23:32.196Z,22.26
2023-04-28T12:24:32.185Z,21.96
2023-04-28T12:25:32.243Z,21.85
2023-04-28T12:26:32.173Z,21.67
2023-04-28T12:27:32.198Z,21.96
2023-04-28T12:28:32.140Z,22.07
2023-04-28T12:29:32.158Z,21.92
2023-04-28T12:30:32.549Z,21.55
2023-04-28T12:31:32.140Z,21.60
2023-04-28T12:32:32.232Z,21.58
2023-04-28T12:33:32.110Z,21.45
2023-04-28T12:34:32.084Z,21.50
2023-04-28T12:35:32.105Z,21.75
2023-04-28T12:36:32.556Z,22.13
2023-04-28T12:37:32.138Z,22.38
2023-04-28T12:38:32.068Z,22.43
2023-04-28T12:39:32.055Z,22.62
2023-04-28T12:40:32.024Z,22.59
2023-04-28T12:41:32.020Z,22.69
2023-04-28T12:42:31.986Z,22.60
2023-04-28T12:43:32.004Z,22.59
2023-04-28T12:44:31.966Z,22.41
2023-04-28T12:45:31.957Z,22.15
2023-04-28T12:46:31.989Z,21.69
2023-04-28T12:47:32.024Z,21.51
2023-04-28T12:48:31.962Z,21.37
2023-04-28T12:49:31.912Z,21.39
2023-04-28T12:50:31.920Z,20.77
2023-04-28T12:51:31.906Z,20.31
2023-04-28T12:52:31.891Z,20.34
2023-04-28T12:53:31.868Z,20.14
2023-04-28T12:54:31.867Z,20.00
2023-04-28T12:55:31.866Z,19.67
2023-04-28T12:56:31.846Z,19.54
2023-04-28T12:57:31.839Z,19.64
2023-04-28T12:58:31.910Z,19.88
2023-04-28T12:59:31.802Z,20.18
2023-04-28T13:00:31.805Z,20.36
2023-04-28T13:01:31.804Z,20.34
2023-04-28T13:02:31.925Z,20.14
2023-04-28T13:03:31.959Z,19.94
2023-04-28T13:04:32.158Z,19.89
2023-04-28T13:05:31.771Z,19.84